sensor_id;sensor_type;location;lat;lon;timestamp;P1;durP1;ratioP1;P2;durP2;ratioP2
32295;SDS011;18781;51.550;5.418;2023-07-08T00:00:20;10.02;;;4.30;;
32295;SDS011;18781;51.550;5.418;2023-07-08T00:02:47;13.40;;;4.63;;
32295;SDS011;18781;51.550;5.418;2023-07-08T00:05:14;8.18;;;4.63;;
32295;SDS011;18781;51.550;5.418;2023-07-08T00:07:41;9.63;;;4.43;;
32295;SDS011;18781;51.550;5.418;2023-07-08T00:10:17;8.85;;;4.57;;
32295;SDS011;18781;51.550;5.418;2023-07-08T00:12:48;10.00;;;4.30;;
32295;SDS011;18781;51.550;5.418;2023-07-08T00:15:16;9.43;;;4.70;;
32295;SDS011;18781;51.550;5.418;2023-07-08T00:17:42;6.55;;;3.85;;
32295;SDS011;18781;51.550;5.418;2023-07-08T00:20:10;9.52;;;4.50;;
32295;SDS011;18781;51.550;5.418;2023-07-08T00:22:42;11.93;;;4.80;;
32295;SDS011;18781;51.550;5.418;2023-07-08T00:25:11;11.65;;;4.55;;
32295;SDS011;18781;51.550;5.418;2023-07-08T00:27:38;8.10;;;4.47;;
32295;SDS011;18781;51.550;5.418;2023-07-08T00:30:09;7.80;;;4.00;;
32295;SDS011;18781;51.550;5.418;2023-07-08T00:32:45;9.73;;;4.38;;
32295;SDS011;18781;51.550;5.418;2023-07-08T00:35:10;6.60;;;4.60;;
32295;SDS011;18781;51.550;5.418;2023-07-08T00:37:36;8.98;;;4.28;;
32295;SDS011;18781;51.550;5.418;2023-07-08T00:40:10;10.02;;;4.75;;
32295;SDS011;18781;51.550;5.418;2023-07-08T00:42:47;8.10;;;5.05;;
32295;SDS011;18781;51.550;5.418;2023-07-08T00:45:29;11.15;;;4.75;;
32295;SDS011;18781;51.550;5.418;2023-07-08T00:48:11;10.57;;;4.35;;
32295;SDS011;18781;51.550;5.418;2023-07-08T00:50:44;8.23;;;4.57;;
32295;SDS011;18781;51.550;5.418;2023-07-08T00:55:47;14.35;;;4.57;;
32295;SDS011;18781;51.550;5.418;2023-07-08T00:58:13;10.95;;;5.00;;
32295;SDS011;18781;51.550;5.418;2023-07-08T01:00:41;8.70;;;5.00;;
32295;SDS011;18781;51.550;5.418;2023-07-08T01:03:07;8.35;;;4.72;;
32295;SDS011;18781;51.550;5.418;2023-07-08T01:05:33;9.70;;;4.68;;
32295;SDS011;18781;51.550;5.418;2023-07-08T01:08:01;10.85;;;4.35;;
32295;SDS011;18781;51.550;5.418;2023-07-08T01:13:13;8.80;;;4.35;;
32295;SDS011;18781;51.550;5.418;2023-07-08T01:15:42;8.43;;;4.85;;
32295;SDS011;18781;51.550;5.418;2023-07-08T01:18:10;14.13;;;4.45;;
32295;SDS011;18781;51.550;5.418;2023-07-08T01:20:41;13.52;;;5.25;;
32295;SDS011;18781;51.550;5.418;2023-07-08T01:23:09;9.43;;;4.47;;
32295;SDS011;18781;51.550;5.418;2023-07-08T01:25:35;9.05;;;4.43;;
32295;SDS011;18781;51.550;5.418;2023-07-08T01:28:00;10.65;;;4.72;;
32295;SDS011;18781;51.550;5.418;2023-07-08T01:30:27;12.60;;;4.97;;
32295;SDS011;18781;51.550;5.418;2023-07-08T01:32:55;7.97;;;4.80;;
32295;SDS011;18781;51.550;5.418;2023-07-08T01:35:24;11.05;;;4.90;;
32295;SDS011;18781;51.550;5.418;2023-07-08T01:37:51;14.65;;;4.20;;
32295;SDS011;18781;51.550;5.418;2023-07-08T01:40:29;9.63;;;4.45;;
32295;SDS011;18781;51.550;5.418;2023-07-08T01:42:59;8.95;;;4.55;;
32295;SDS011;18781;51.550;5.418;2023-07-08T01:45:27;7.50;;;4.63;;
32295;SDS011;18781;51.550;5.418;2023-07-08T01:50:35;7.55;;;4.47;;
32295;SDS011;18781;51.550;5.418;2023-07-08T01:53:05;9.23;;;4.55;;
32295;SDS011;18781;51.550;5.418;2023-07-08T01:55:36;8.68;;;4.70;;
32295;SDS011;18781;51.550;5.418;2023-07-08T01:58:02;9.65;;;4.38;;
32295;SDS011;18781;51.550;5.418;2023-07-08T02:00:27;6.72;;;4.43;;
32295;SDS011;18781;51.550;5.418;2023-07-08T02:02:53;13.40;;;4.85;;
32295;SDS011;18781;51.550;5.418;2023-07-08T02:05:18;8.38;;;4.32;;
32295;SDS011;18781;51.550;5.418;2023-07-08T02:07:44;8.90;;;4.45;;
32295;SDS011;18781;51.550;5.418;2023-07-08T02:10:09;8.60;;;4.30;;
32295;SDS011;18781;51.550;5.418;2023-07-08T02:12:35;10.20;;;4.65;;
32295;SDS011;18781;51.550;5.418;2023-07-08T02:15:01;6.47;;;4.40;;
32295;SDS011;18781;51.550;5.418;2023-07-08T02:17:27;12.50;;;4.55;;
32295;SDS011;18781;51.550;5.418;2023-07-08T02:19:54;9.95;;;4.55;;
32295;SDS011;18781;51.550;5.418;2023-07-08T02:22:20;8.13;;;4.63;;
32295;SDS011;18781;51.550;5.418;2023-07-08T02:24:45;14.30;;;4.53;;
32295;SDS011;18781;51.550;5.418;2023-07-08T02:27:11;7.70;;;4.43;;
32295;SDS011;18781;51.550;5.418;2023-07-08T02:29:36;7.90;;;4.50;;
32295;SDS011;18781;51.550;5.418;2023-07-08T02:32:03;9.48;;;4.47;;
32295;SDS011;18781;51.550;5.418;2023-07-08T02:34:29;6.00;;;4.57;;
32295;SDS011;18781;51.550;5.418;2023-07-08T02:36:55;8.13;;;4.30;;
32295;SDS011;18781;51.550;5.418;2023-07-08T02:39:21;6.43;;;4.40;;
32295;SDS011;18781;51.550;5.418;2023-07-08T02:41:47;8.18;;;4.28;;
32295;SDS011;18781;51.550;5.418;2023-07-08T02:44:13;8.93;;;4.88;;
32295;SDS011;18781;51.550;5.418;2023-07-08T02:46:38;7.03;;;4.50;;
32295;SDS011;18781;51.550;5.418;2023-07-08T02:49:04;9.20;;;4.90;;
32295;SDS011;18781;51.550;5.418;2023-07-08T02:51:30;8.40;;;4.20;;
32295;SDS011;18781;51.550;5.418;2023-07-08T02:53:56;10.07;;;4.88;;
32295;SDS011;18781;51.550;5.418;2023-07-08T02:56:22;8.85;;;4.95;;
32295;SDS011;18781;51.550;5.418;2023-07-08T02:58:47;9.30;;;4.78;;
32295;SDS011;18781;51.550;5.418;2023-07-08T03:01:13;7.55;;;4.65;;
32295;SDS011;18781;51.550;5.418;2023-07-08T03:03:43;9.13;;;4.72;;
32295;SDS011;18781;51.550;5.418;2023-07-08T03:06:09;8.88;;;4.80;;
32295;SDS011;18781;51.550;5.418;2023-07-08T03:08:35;7.63;;;4.53;;
32295;SDS011;18781;51.550;5.418;2023-07-08T03:11:02;12.25;;;5.30;;
32295;SDS011;18781;51.550;5.418;2023-07-08T03:13:29;8.15;;;4.88;;
32295;SDS011;18781;51.550;5.418;2023-07-08T03:15:57;9.43;;;5.28;;
32295;SDS011;18781;51.550;5.418;2023-07-08T03:18:26;8.43;;;5.18;;
32295;SDS011;18781;51.550;5.418;2023-07-08T03:20:53;11.13;;;5.65;;
32295;SDS011;18781;51.550;5.418;2023-07-08T03:23:21;10.93;;;5.60;;
32295;SDS011;18781;51.550;5.418;2023-07-08T03:25:47;9.32;;;5.32;;
32295;SDS011;18781;51.550;5.418;2023-07-08T03:28:13;9.23;;;5.47;;
32295;SDS011;18781;51.550;5.418;2023-07-08T03:30:43;12.45;;;5.30;;
32295;SDS011;18781;51.550;5.418;2023-07-08T03:35:35;11.75;;;5.55;;
32295;SDS011;18781;51.550;5.418;2023-07-08T03:38:00;9.23;;;5.28;;
32295;SDS011;18781;51.550;5.418;2023-07-08T03:40:27;11.45;;;5.68;;
32295;SDS011;18781;51.550;5.418;2023-07-08T03:42:52;10.63;;;5.90;;
32295;SDS011;18781;51.550;5.418;2023-07-08T03:45:18;13.27;;;5.70;;
32295;SDS011;18781;51.550;5.418;2023-07-08T03:47:43;8.43;;;5.32;;
32295;SDS011;18781;51.550;5.418;2023-07-08T03:50:19;9.20;;;5.00;;
32295;SDS011;18781;51.550;5.418;2023-07-08T03:52:47;7.88;;;5.60;;
32295;SDS011;18781;51.550;5.418;2023-07-08T03:55:14;12.90;;;5.90;;
32295;SDS011;18781;51.550;5.418;2023-07-08T03:57:40;11.25;;;5.03;;
32295;SDS011;18781;51.550;5.418;2023-07-08T04:00:06;8.45;;;5.43;;
32295;SDS011;18781;51.550;5.418;2023-07-08T04:02:37;6.85;;;4.82;;
32295;SDS011;18781;51.550;5.418;2023-07-08T04:05:08;8.63;;;5.43;;
32295;SDS011;18781;51.550;5.418;2023-07-08T04:07:39;11.50;;;5.32;;
32295;SDS011;18781;51.550;5.418;2023-07-08T04:10:05;14.32;;;5.20;;
32295;SDS011;18781;51.550;5.418;2023-07-08T04:12:32;10.23;;;5.03;;
32295;SDS011;18781;51.550;5.418;2023-07-08T04:14:57;7.93;;;5.78;;
32295;SDS011;18781;51.550;5.418;2023-07-08T04:17:23;11.63;;;5.90;;
32295;SDS011;18781;51.550;5.418;2023-07-08T04:19:49;11.10;;;5.57;;
32295;SDS011;18781;51.550;5.418;2023-07-08T04:22:15;14.15;;;5.35;;
32295;SDS011;18781;51.550;5.418;2023-07-08T04:24:40;11.32;;;5.82;;
32295;SDS011;18781;51.550;5.418;2023-07-08T04:27:08;8.15;;;4.78;;
32295;SDS011;18781;51.550;5.418;2023-07-08T04:29:39;12.90;;;6.00;;
32295;SDS011;18781;51.550;5.418;2023-07-08T04:32:05;10.05;;;5.43;;
32295;SDS011;18781;51.550;5.418;2023-07-08T04:34:31;13.10;;;5.30;;
32295;SDS011;18781;51.550;5.418;2023-07-08T04:36:56;10.15;;;5.55;;
32295;SDS011;18781;51.550;5.418;2023-07-08T04:39:22;11.55;;;5.80;;
32295;SDS011;18781;51.550;5.418;2023-07-08T04:41:47;14.38;;;5.88;;
32295;SDS011;18781;51.550;5.418;2023-07-08T04:44:13;12.20;;;6.18;;
32295;SDS011;18781;51.550;5.418;2023-07-08T04:46:45;11.68;;;5.93;;
32295;SDS011;18781;51.550;5.418;2023-07-08T04:49:13;9.20;;;5.63;;
32295;SDS011;18781;51.550;5.418;2023-07-08T04:51:39;12.52;;;6.55;;
32295;SDS011;18781;51.550;5.418;2023-07-08T04:54:05;8.52;;;5.72;;
32295;SDS011;18781;51.550;5.418;2023-07-08T04:56:38;10.75;;;6.45;;
32295;SDS011;18781;51.550;5.418;2023-07-08T04:59:09;9.25;;;6.20;;
32295;SDS011;18781;51.550;5.418;2023-07-08T05:01:39;12.65;;;6.82;;
32295;SDS011;18781;51.550;5.418;2023-07-08T05:06:33;9.27;;;7.22;;
32295;SDS011;18781;51.550;5.418;2023-07-08T05:08:59;9.60;;;6.75;;
32295;SDS011;18781;51.550;5.418;2023-07-08T05:11:26;11.02;;;6.82;;
32295;SDS011;18781;51.550;5.418;2023-07-08T05:13:52;10.00;;;7.05;;
32295;SDS011;18781;51.550;5.418;2023-07-08T05:16:18;18.65;;;7.70;;
32295;SDS011;18781;51.550;5.418;2023-07-08T05:18:44;12.68;;;7.15;;
32295;SDS011;18781;51.550;5.418;2023-07-08T05:21:10;12.27;;;7.78;;
32295;SDS011;18781;51.550;5.418;2023-07-08T05:23:36;9.70;;;7.43;;
32295;SDS011;18781;51.550;5.418;2023-07-08T05:26:02;11.60;;;7.93;;
32295;SDS011;18781;51.550;5.418;2023-07-08T05:28:28;10.18;;;7.72;;
32295;SDS011;18781;51.550;5.418;2023-07-08T05:30:54;13.15;;;7.93;;
32295;SDS011;18781;51.550;5.418;2023-07-08T05:33:21;14.93;;;8.38;;
32295;SDS011;18781;51.550;5.418;2023-07-08T05:35:51;20.42;;;8.52;;
32295;SDS011;18781;51.550;5.418;2023-07-08T05:38:16;14.45;;;8.55;;
32295;SDS011;18781;51.550;5.418;2023-07-08T05:40:42;11.10;;;8.07;;
32295;SDS011;18781;51.550;5.418;2023-07-08T05:43:08;12.35;;;8.38;;
32295;SDS011;18781;51.550;5.418;2023-07-08T05:45:34;20.58;;;8.80;;
32295;SDS011;18781;51.550;5.418;2023-07-08T05:48:00;12.43;;;7.55;;
32295;SDS011;18781;51.550;5.418;2023-07-08T05:50:26;15.70;;;8.10;;
32295;SDS011;18781;51.550;5.418;2023-07-08T05:52:52;14.00;;;8.32;;
32295;SDS011;18781;51.550;5.418;2023-07-08T05:55:18;14.45;;;8.10;;
32295;SDS011;18781;51.550;5.418;2023-07-08T05:57:43;15.63;;;7.30;;
32295;SDS011;18781;51.550;5.418;2023-07-08T06:00:09;12.32;;;7.65;;
32295;SDS011;18781;51.550;5.418;2023-07-08T06:02:35;18.02;;;8.10;;
32295;SDS011;18781;51.550;5.418;2023-07-08T06:05:01;15.23;;;8.00;;
32295;SDS011;18781;51.550;5.418;2023-07-08T06:07:27;13.55;;;7.78;;
32295;SDS011;18781;51.550;5.418;2023-07-08T06:09:52;16.00;;;7.63;;
32295;SDS011;18781;51.550;5.418;2023-07-08T06:12:20;14.48;;;7.30;;
32295;SDS011;18781;51.550;5.418;2023-07-08T06:14:46;13.30;;;6.95;;
32295;SDS011;18781;51.550;5.418;2023-07-08T06:17:12;16.23;;;6.88;;
32295;SDS011;18781;51.550;5.418;2023-07-08T06:19:38;14.82;;;7.85;;
32295;SDS011;18781;51.550;5.418;2023-07-08T06:22:03;12.73;;;7.13;;
32295;SDS011;18781;51.550;5.418;2023-07-08T06:24:29;12.93;;;7.68;;
32295;SDS011;18781;51.550;5.418;2023-07-08T06:26:54;13.57;;;7.03;;
32295;SDS011;18781;51.550;5.418;2023-07-08T06:29:20;16.08;;;7.35;;
32295;SDS011;18781;51.550;5.418;2023-07-08T06:31:45;12.52;;;7.80;;
32295;SDS011;18781;51.550;5.418;2023-07-08T06:34:11;13.30;;;7.40;;
32295;SDS011;18781;51.550;5.418;2023-07-08T06:36:37;11.63;;;7.50;;
32295;SDS011;18781;51.550;5.418;2023-07-08T06:39:02;15.77;;;8.10;;
32295;SDS011;18781;51.550;5.418;2023-07-08T06:41:28;14.95;;;8.48;;
32295;SDS011;18781;51.550;5.418;2023-07-08T06:43:54;15.18;;;8.40;;
32295;SDS011;18781;51.550;5.418;2023-07-08T06:46:19;15.27;;;8.63;;
32295;SDS011;18781;51.550;5.418;2023-07-08T06:48:45;19.52;;;8.35;;
32295;SDS011;18781;51.550;5.418;2023-07-08T06:51:10;16.50;;;9.05;;
32295;SDS011;18781;51.550;5.418;2023-07-08T06:53:36;16.15;;;9.07;;
32295;SDS011;18781;51.550;5.418;2023-07-08T06:56:02;15.50;;;8.75;;
32295;SDS011;18781;51.550;5.418;2023-07-08T06:58:28;17.20;;;8.90;;
32295;SDS011;18781;51.550;5.418;2023-07-08T07:00:53;15.50;;;8.60;;
32295;SDS011;18781;51.550;5.418;2023-07-08T07:03:19;22.45;;;8.82;;
32295;SDS011;18781;51.550;5.418;2023-07-08T07:05:45;18.17;;;8.98;;
32295;SDS011;18781;51.550;5.418;2023-07-08T07:08:10;14.90;;;8.50;;
32295;SDS011;18781;51.550;5.418;2023-07-08T07:10:36;16.23;;;8.73;;
32295;SDS011;18781;51.550;5.418;2023-07-08T07:13:02;14.52;;;8.65;;
32295;SDS011;18781;51.550;5.418;2023-07-08T07:15:27;13.57;;;8.13;;
32295;SDS011;18781;51.550;5.418;2023-07-08T07:17:55;12.55;;;8.52;;
32295;SDS011;18781;51.550;5.418;2023-07-08T07:20:21;14.82;;;8.35;;
32295;SDS011;18781;51.550;5.418;2023-07-08T07:22:47;11.85;;;8.15;;
32295;SDS011;18781;51.550;5.418;2023-07-08T07:25:12;15.63;;;8.55;;
32295;SDS011;18781;51.550;5.418;2023-07-08T07:27:38;13.95;;;7.85;;
32295;SDS011;18781;51.550;5.418;2023-07-08T07:30:03;16.48;;;8.65;;
32295;SDS011;18781;51.550;5.418;2023-07-08T07:32:30;21.48;;;8.60;;
32295;SDS011;18781;51.550;5.418;2023-07-08T07:34:57;14.90;;;9.15;;
32295;SDS011;18781;51.550;5.418;2023-07-08T07:37:24;16.40;;;8.77;;
32295;SDS011;18781;51.550;5.418;2023-07-08T07:39:50;19.83;;;9.48;;
32295;SDS011;18781;51.550;5.418;2023-07-08T07:42:17;16.48;;;9.07;;
32295;SDS011;18781;51.550;5.418;2023-07-08T07:44:44;22.23;;;8.82;;
32295;SDS011;18781;51.550;5.418;2023-07-08T07:47:10;16.45;;;8.45;;
32295;SDS011;18781;51.550;5.418;2023-07-08T07:49:36;14.90;;;8.45;;
32295;SDS011;18781;51.550;5.418;2023-07-08T07:52:02;17.17;;;8.85;;
32295;SDS011;18781;51.550;5.418;2023-07-08T07:54:28;16.83;;;8.43;;
32295;SDS011;18781;51.550;5.418;2023-07-08T07:56:54;15.95;;;8.43;;
32295;SDS011;18781;51.550;5.418;2023-07-08T07:59:19;14.70;;;8.55;;
32295;SDS011;18781;51.550;5.418;2023-07-08T08:01:45;15.05;;;7.97;;
32295;SDS011;18781;51.550;5.418;2023-07-08T08:04:11;19.33;;;8.13;;
32295;SDS011;18781;51.550;5.418;2023-07-08T08:06:36;11.80;;;8.38;;
32295;SDS011;18781;51.550;5.418;2023-07-08T08:09:03;17.10;;;8.98;;
32295;SDS011;18781;51.550;5.418;2023-07-08T08:11:29;19.25;;;8.10;;
32295;SDS011;18781;51.550;5.418;2023-07-08T08:13:55;16.67;;;8.63;;
32295;SDS011;18781;51.550;5.418;2023-07-08T08:16:21;19.67;;;8.27;;
32295;SDS011;18781;51.550;5.418;2023-07-08T08:18:47;17.70;;;8.32;;
32295;SDS011;18781;51.550;5.418;2023-07-08T08:21:12;13.88;;;8.90;;
32295;SDS011;18781;51.550;5.418;2023-07-08T08:23:38;16.70;;;9.13;;
32295;SDS011;18781;51.550;5.418;2023-07-08T08:26:04;22.08;;;9.13;;
32295;SDS011;18781;51.550;5.418;2023-07-08T08:28:29;15.02;;;8.73;;
32295;SDS011;18781;51.550;5.418;2023-07-08T08:30:55;15.85;;;8.88;;
32295;SDS011;18781;51.550;5.418;2023-07-08T08:33:20;23.25;;;9.38;;
32295;SDS011;18781;51.550;5.418;2023-07-08T08:35:46;16.05;;;8.75;;
32295;SDS011;18781;51.550;5.418;2023-07-08T08:38:12;13.73;;;8.07;;
32295;SDS011;18781;51.550;5.418;2023-07-08T08:40:39;15.75;;;8.35;;
32295;SDS011;18781;51.550;5.418;2023-07-08T08:43:06;15.70;;;8.32;;
32295;SDS011;18781;51.550;5.418;2023-07-08T08:45:43;15.23;;;7.65;;
32295;SDS011;18781;51.550;5.418;2023-07-08T08:48:18;15.70;;;8.23;;
32295;SDS011;18781;51.550;5.418;2023-07-08T08:51:02;14.13;;;7.78;;
32295;SDS011;18781;51.550;5.418;2023-07-08T08:53:33;19.67;;;8.20;;
32295;SDS011;18781;51.550;5.418;2023-07-08T08:56:43;14.82;;;8.80;;
32295;SDS011;18781;51.550;5.418;2023-07-08T08:59:04;15.73;;;8.55;;
32295;SDS011;18781;51.550;5.418;2023-07-08T09:01:36;14.02;;;8.43;;
32295;SDS011;18781;51.550;5.418;2023-07-08T09:06:35;14.50;;;8.60;;
32295;SDS011;18781;51.550;5.418;2023-07-08T09:09:02;14.48;;;8.07;;
32295;SDS011;18781;51.550;5.418;2023-07-08T09:11:45;13.20;;;8.20;;
32295;SDS011;18781;51.550;5.418;2023-07-08T09:14:26;15.18;;;8.30;;
32295;SDS011;18781;51.550;5.418;2023-07-08T09:19:45;17.13;;;9.35;;
32295;SDS011;18781;51.550;5.418;2023-07-08T09:22:25;14.73;;;8.73;;
32295;SDS011;18781;51.550;5.418;2023-07-08T09:27:40;17.70;;;8.32;;
32295;SDS011;18781;51.550;5.418;2023-07-08T09:30:25;16.60;;;8.93;;
32295;SDS011;18781;51.550;5.418;2023-07-08T09:32:53;16.90;;;8.60;;
32295;SDS011;18781;51.550;5.418;2023-07-08T09:35:26;16.67;;;8.55;;
32295;SDS011;18781;51.550;5.418;2023-07-08T09:37:53;14.18;;;8.35;;
32295;SDS011;18781;51.550;5.418;2023-07-08T09:40:29;14.68;;;8.52;;
32295;SDS011;18781;51.550;5.418;2023-07-08T09:43:38;15.57;;;9.00;;
32295;SDS011;18781;51.550;5.418;2023-07-08T09:45:55;20.30;;;9.38;;
32295;SDS011;18781;51.550;5.418;2023-07-08T09:48:24;17.40;;;9.75;;
32295;SDS011;18781;51.550;5.418;2023-07-08T09:50:52;18.15;;;9.68;;
32295;SDS011;18781;51.550;5.418;2023-07-08T09:53:19;18.73;;;9.43;;
32295;SDS011;18781;51.550;5.418;2023-07-08T09:55:45;18.65;;;9.90;;
32295;SDS011;18781;51.550;5.418;2023-07-08T09:58:13;14.95;;;9.18;;
32295;SDS011;18781;51.550;5.418;2023-07-08T10:00:43;15.32;;;8.68;;
32295;SDS011;18781;51.550;5.418;2023-07-08T10:03:36;16.27;;;9.43;;
32295;SDS011;18781;51.550;5.418;2023-07-08T10:06:04;15.60;;;9.27;;
32295;SDS011;18781;51.550;5.418;2023-07-08T10:08:40;15.57;;;9.50;;
32295;SDS011;18781;51.550;5.418;2023-07-08T10:13:54;18.23;;;9.77;;
32295;SDS011;18781;51.550;5.418;2023-07-08T10:16:24;13.93;;;8.75;;
32295;SDS011;18781;51.550;5.418;2023-07-08T10:18:52;17.20;;;8.00;;
32295;SDS011;18781;51.550;5.418;2023-07-08T10:21:31;14.43;;;8.52;;
32295;SDS011;18781;51.550;5.418;2023-07-08T10:26:41;12.20;;;8.35;;
32295;SDS011;18781;51.550;5.418;2023-07-08T10:29:13;16.90;;;9.23;;
32295;SDS011;18781;51.550;5.418;2023-07-08T10:31:54;15.55;;;8.05;;
32295;SDS011;18781;51.550;5.418;2023-07-08T10:40:18;21.30;;;9.35;;
32295;SDS011;18781;51.550;5.418;2023-07-08T10:43:05;15.43;;;8.52;;
32295;SDS011;18781;51.550;5.418;2023-07-08T10:45:49;13.90;;;8.85;;
32295;SDS011;18781;51.550;5.418;2023-07-08T10:54:18;15.25;;;8.13;;
32295;SDS011;18781;51.550;5.418;2023-07-08T11:04:46;14.73;;;8.95;;
32295;SDS011;18781;51.550;5.418;2023-07-08T11:07:22;15.52;;;8.20;;
32295;SDS011;18781;51.550;5.418;2023-07-08T11:09:58;14.27;;;8.80;;
32295;SDS011;18781;51.550;5.418;2023-07-08T11:12:34;17.65;;;9.10;;
32295;SDS011;18781;51.550;5.418;2023-07-08T11:15:08;16.30;;;8.27;;
32295;SDS011;18781;51.550;5.418;2023-07-08T11:17:51;15.97;;;9.20;;
32295;SDS011;18781;51.550;5.418;2023-07-08T11:20:44;16.15;;;8.68;;
32295;SDS011;18781;51.550;5.418;2023-07-08T11:23:31;18.08;;;8.95;;
32295;SDS011;18781;51.550;5.418;2023-07-08T11:26:17;16.95;;;9.10;;
32295;SDS011;18781;51.550;5.418;2023-07-08T11:28:47;16.55;;;8.32;;
32295;SDS011;18781;51.550;5.418;2023-07-08T11:31:16;13.57;;;8.93;;
32295;SDS011;18781;51.550;5.418;2023-07-08T11:33:43;16.70;;;7.80;;
32295;SDS011;18781;51.550;5.418;2023-07-08T11:36:09;13.00;;;8.70;;
32295;SDS011;18781;51.550;5.418;2023-07-08T11:38:37;16.80;;;9.65;;
32295;SDS011;18781;51.550;5.418;2023-07-08T11:41:13;15.93;;;8.60;;
32295;SDS011;18781;51.550;5.418;2023-07-08T11:43:49;17.00;;;8.40;;
32295;SDS011;18781;51.550;5.418;2023-07-08T11:46:21;21.25;;;8.77;;
32295;SDS011;18781;51.550;5.418;2023-07-08T11:48:51;13.85;;;9.00;;
32295;SDS011;18781;51.550;5.418;2023-07-08T11:51:28;12.70;;;8.18;;
32295;SDS011;18781;51.550;5.418;2023-07-08T11:57:00;15.90;;;8.82;;
32295;SDS011;18781;51.550;5.418;2023-07-08T11:59:33;16.50;;;8.30;;
32295;SDS011;18781;51.550;5.418;2023-07-08T12:02:03;12.02;;;7.78;;
32295;SDS011;18781;51.550;5.418;2023-07-08T12:07:48;11.40;;;7.80;;
32295;SDS011;18781;51.550;5.418;2023-07-08T12:10:27;16.48;;;8.18;;
32295;SDS011;18781;51.550;5.418;2023-07-08T12:12:57;14.83;;;9.10;;
32295;SDS011;18781;51.550;5.418;2023-07-08T12:15:24;13.80;;;8.48;;
32295;SDS011;18781;51.550;5.418;2023-07-08T12:17:53;14.20;;;8.80;;
32295;SDS011;18781;51.550;5.418;2023-07-08T12:20:34;14.45;;;8.60;;
32295;SDS011;18781;51.550;5.418;2023-07-08T12:23:02;14.18;;;7.40;;
32295;SDS011;18781;51.550;5.418;2023-07-08T12:25:34;11.68;;;8.07;;
32295;SDS011;18781;51.550;5.418;2023-07-08T12:28:00;15.30;;;8.88;;
32295;SDS011;18781;51.550;5.418;2023-07-08T12:30:27;15.73;;;8.52;;
32295;SDS011;18781;51.550;5.418;2023-07-08T12:32:55;11.07;;;7.78;;
32295;SDS011;18781;51.550;5.418;2023-07-08T12:35:28;15.52;;;8.32;;
32295;SDS011;18781;51.550;5.418;2023-07-08T12:37:57;14.02;;;8.32;;
32295;SDS011;18781;51.550;5.418;2023-07-08T12:40:26;13.77;;;8.25;;
32295;SDS011;18781;51.550;5.418;2023-07-08T12:42:53;13.90;;;8.15;;
32295;SDS011;18781;51.550;5.418;2023-07-08T12:45:21;14.73;;;8.30;;
32295;SDS011;18781;51.550;5.418;2023-07-08T12:47:48;17.38;;;8.77;;
32295;SDS011;18781;51.550;5.418;2023-07-08T12:50:14;13.38;;;8.27;;
32295;SDS011;18781;51.550;5.418;2023-07-08T12:52:41;18.10;;;8.07;;
32295;SDS011;18781;51.550;5.418;2023-07-08T12:55:09;20.05;;;8.10;;
32295;SDS011;18781;51.550;5.418;2023-07-08T12:57:36;15.38;;;7.95;;
32295;SDS011;18781;51.550;5.418;2023-07-08T13:00:03;11.73;;;8.10;;
32295;SDS011;18781;51.550;5.418;2023-07-08T13:02:30;15.88;;;8.20;;
32295;SDS011;18781;51.550;5.418;2023-07-08T13:05:00;15.10;;;7.88;;
32295;SDS011;18781;51.550;5.418;2023-07-08T13:10:05;15.35;;;7.97;;
32295;SDS011;18781;51.550;5.418;2023-07-08T13:12:32;11.10;;;7.03;;
32295;SDS011;18781;51.550;5.418;2023-07-08T13:15:03;14.27;;;8.32;;
32295;SDS011;18781;51.550;5.418;2023-07-08T13:17:29;15.50;;;8.25;;
32295;SDS011;18781;51.550;5.418;2023-07-08T13:19:55;13.93;;;7.28;;
32295;SDS011;18781;51.550;5.418;2023-07-08T13:22:22;11.65;;;7.55;;
32295;SDS011;18781;51.550;5.418;2023-07-08T13:24:54;15.20;;;7.53;;
32295;SDS011;18781;51.550;5.418;2023-07-08T13:27:25;17.67;;;8.05;;
32295;SDS011;18781;51.550;5.418;2023-07-08T13:29:52;19.73;;;7.53;;
32295;SDS011;18781;51.550;5.418;2023-07-08T13:32:18;13.70;;;7.07;;
32295;SDS011;18781;51.550;5.418;2023-07-08T13:34:44;10.98;;;6.60;;
32295;SDS011;18781;51.550;5.418;2023-07-08T13:37:13;15.43;;;7.47;;
32295;SDS011;18781;51.550;5.418;2023-07-08T13:39:43;16.80;;;6.90;;
32295;SDS011;18781;51.550;5.418;2023-07-08T13:42:10;14.25;;;6.82;;
32295;SDS011;18781;51.550;5.418;2023-07-08T13:44:43;15.23;;;7.20;;
32295;SDS011;18781;51.550;5.418;2023-07-08T13:47:18;15.98;;;7.82;;
32295;SDS011;18781;51.550;5.418;2023-07-08T13:49:47;13.40;;;6.97;;
32295;SDS011;18781;51.550;5.418;2023-07-08T13:52:18;14.52;;;6.88;;
32295;SDS011;18781;51.550;5.418;2023-07-08T13:57:31;16.02;;;7.05;;
32295;SDS011;18781;51.550;5.418;2023-07-08T14:02:25;13.13;;;6.95;;
32295;SDS011;18781;51.550;5.418;2023-07-08T14:04:54;12.60;;;6.50;;
32295;SDS011;18781;51.550;5.418;2023-07-08T14:07:23;13.88;;;6.80;;
32295;SDS011;18781;51.550;5.418;2023-07-08T14:09:50;12.32;;;6.40;;
32295;SDS011;18781;51.550;5.418;2023-07-08T14:12:17;13.45;;;6.82;;
32295;SDS011;18781;51.550;5.418;2023-07-08T14:14:43;13.65;;;6.40;;
32295;SDS011;18781;51.550;5.418;2023-07-08T14:17:12;15.73;;;7.07;;
32295;SDS011;18781;51.550;5.418;2023-07-08T14:19:51;10.90;;;6.28;;
32295;SDS011;18781;51.550;5.418;2023-07-08T14:22:29;11.73;;;6.10;;
32295;SDS011;18781;51.550;5.418;2023-07-08T14:24:56;13.98;;;6.38;;
32295;SDS011;18781;51.550;5.418;2023-07-08T14:27:25;13.02;;;6.82;;
32295;SDS011;18781;51.550;5.418;2023-07-08T14:29:51;10.55;;;6.10;;
32295;SDS011;18781;51.550;5.418;2023-07-08T14:32:24;14.48;;;6.22;;
32295;SDS011;18781;51.550;5.418;2023-07-08T14:34:55;16.20;;;6.68;;
32295;SDS011;18781;51.550;5.418;2023-07-08T14:37:22;11.93;;;6.15;;
32295;SDS011;18781;51.550;5.418;2023-07-08T14:39:48;15.93;;;5.90;;
32295;SDS011;18781;51.550;5.418;2023-07-08T14:42:15;10.65;;;5.68;;
32295;SDS011;18781;51.550;5.418;2023-07-08T14:44:45;10.00;;;6.10;;
32295;SDS011;18781;51.550;5.418;2023-07-08T14:47:15;11.85;;;5.95;;
32295;SDS011;18781;51.550;5.418;2023-07-08T14:49:43;11.05;;;6.15;;
32295;SDS011;18781;51.550;5.418;2023-07-08T14:52:09;10.38;;;6.05;;
32295;SDS011;18781;51.550;5.418;2023-07-08T14:54:34;9.63;;;5.70;;
32295;SDS011;18781;51.550;5.418;2023-07-08T14:57:00;14.30;;;5.90;;
32295;SDS011;18781;51.550;5.418;2023-07-08T14:59:28;11.95;;;6.68;;
32295;SDS011;18781;51.550;5.418;2023-07-08T15:01:57;13.45;;;6.63;;
32295;SDS011;18781;51.550;5.418;2023-07-08T15:04:23;9.85;;;6.47;;
32295;SDS011;18781;51.550;5.418;2023-07-08T15:06:49;12.00;;;6.05;;
32295;SDS011;18781;51.550;5.418;2023-07-08T15:09:16;16.75;;;7.30;;
32295;SDS011;18781;51.550;5.418;2023-07-08T15:11:43;12.07;;;6.70;;
32295;SDS011;18781;51.550;5.418;2023-07-08T15:14:20;13.95;;;7.03;;
32295;SDS011;18781;51.550;5.418;2023-07-08T15:16:48;12.80;;;6.43;;
32295;SDS011;18781;51.550;5.418;2023-07-08T15:19:15;11.43;;;6.50;;
32295;SDS011;18781;51.550;5.418;2023-07-08T15:21:42;9.82;;;6.55;;
32295;SDS011;18781;51.550;5.418;2023-07-08T15:24:09;11.05;;;7.20;;
32295;SDS011;18781;51.550;5.418;2023-07-08T15:26:47;12.93;;;6.35;;
32295;SDS011;18781;51.550;5.418;2023-07-08T15:29:14;13.68;;;7.53;;
32295;SDS011;18781;51.550;5.418;2023-07-08T15:31:44;11.68;;;6.72;;
32295;SDS011;18781;51.550;5.418;2023-07-08T15:34:11;18.10;;;8.10;;
32295;SDS011;18781;51.550;5.418;2023-07-08T15:36:47;12.10;;;7.13;;
32295;SDS011;18781;51.550;5.418;2023-07-08T15:39:14;12.60;;;7.57;;
32295;SDS011;18781;51.550;5.418;2023-07-08T15:41:40;13.60;;;6.72;;
32295;SDS011;18781;51.550;5.418;2023-07-08T15:44:10;14.43;;;7.45;;
32295;SDS011;18781;51.550;5.418;2023-07-08T15:46:39;12.57;;;7.25;;